METAR Data
IDs: Format: Raw Decoded Include TAF

Data at: 0233 UTC 24 Sep 2018

KOWP 240215Z AUTO 00000KT 10SM OVC028 23/19 A2994 RMK AO2 T02250187
KOWP 240155Z AUTO 00000KT 10SM OVC028 23/19 A2994 RMK AO2 T02260186
KOWP 240135Z AUTO 03004KT 10SM BKN022 OVC028 23/19 A2994 RMK AO2 T02250189
KOWP 240115Z AUTO 00000KT 10SM OVC022 23/19 A2994 RMK AO2 T02250191
KOWP 240055Z AUTO 00000KT 10SM OVC022 23/19 A2994 RMK AO2 T02250194
KOWP 240035Z AUTO 00000KT 10SM OVC022 23/19 A2994 RMK AO2 T02260193
KOWP 240015Z AUTO 00000KT 10SM OVC022 23/19 A2994 RMK AO2 T02280194
KOWP 232355Z AUTO 00000KT 10SM OVC022 23/20 A2994 RMK AO2 T02280196 10235 20217
KOWP 232335Z AUTO 00000KT 10SM OVC022 23/19 A2994 RMK AO2 T02310191
KOWP 232315Z AUTO 00000KT 10SM OVC022 23/19 A2994 RMK AO2 T02310187
KOWP 232255Z AUTO 00000KT 10SM OVC022 23/19 A2994 RMK AO2 T02320187
KOWP 232235Z AUTO 06003KT 10SM OVC022 23/19 A2995 RMK AO2 T02330185
KOWP 232215Z AUTO 05003KT 10SM OVC022 23/18 A2995 RMK AO2 T02340183
KOWP 232155Z AUTO 07003KT 10SM OVC022 24/18 A2995 RMK AO2 T02350182
KOWP 232135Z AUTO 00000KT 10SM OVC022 24/18 A2996 RMK AO2 T02350180
KOWP 232115Z AUTO 00000KT 10SM OVC022 24/18 A2996 RMK AO2 T02350178
KOWP 232055Z AUTO 06003KT 10SM OVC020 23/18 A2996 RMK AO2 T02340181
KOWP 232035Z AUTO 08003KT 10SM OVC020 23/18 A2997 RMK AO2 T02320180
KOWP 232015Z AUTO 08005KT 10SM OVC020 23/18 A2997 RMK AO2 T02320179
KOWP 231955Z AUTO 07005KT 10SM OVC020 23/18 A2998 RMK AO2 T02300177
KOWP 231935Z AUTO 06004KT 10SM OVC018 23/18 A2999 RMK AO2 T02280178
KOWP 231915Z AUTO 05003KT 10SM OVC018 23/18 A3001 RMK AO2 T02290177
KOWP 231855Z AUTO 07005KT 10SM OVC016 22/18 A3002 RMK AO2 T02220175
KOWP 231835Z AUTO 07003KT 10SM OVC016 22/18 A3003 RMK AO2 T02210175
KOWP 231815Z AUTO 04006KT 10SM OVC014 22/17 A3003 RMK AO2 T02200173
KOWP 231755Z AUTO 04007KT 10SM OVC014 22/17 A3004 RMK AO2 T02170174 10217 20185
KOWP 231735Z AUTO 03006KT 10SM OVC014 22/18 A3004 RMK AO2 T02160175
KOWP 231715Z AUTO 04007KT 10SM OVC014 22/17 A3005 RMK AO2 T02150174
KOWP 231655Z AUTO 04005KT 10SM OVC014 21/17 A3005 RMK AO2 T02130173
KOWP 231635Z AUTO 01005KT 10SM OVC014 21/17 A3006 RMK AO2 T02110171
KOWP 231615Z AUTO 04006KT 10SM OVC014 21/17 A3006 RMK AO2 T02110171
KOWP 231555Z AUTO 02006KT 10SM OVC014 21/17 A3006 RMK AO2 T02100172
KOWP 231535Z AUTO 08007KT 10SM SCT010 OVC016 21/17 A3006 RMK AO2 T02080174
KOWP 231515Z AUTO 07006KT 10SM SCT010 OVC014 20/17 A3006 RMK AO2 T01990173
KOWP 231455Z AUTO 04004KT 10SM SCT009 OVC016 20/18 A3006 RMK AO2 T01960179
KOWP 231435Z AUTO 05004KT 10SM SCT007 OVC016 19/18 A3005 RMK AO2 T01920180
KOWP 231415Z AUTO 06004KT 7SM BKN007 OVC014 19/18 A3005 RMK AO2 T01910179
KOWP 231355Z AUTO 07004KT 5SM BR OVC005 19/18 A3005 RMK AO2 T01900177
KOWP 231335Z AUTO 06003KT 7SM OVC005 19/18 A3005 RMK AO2 T01900177
KOWP 231315Z AUTO 04004KT 10SM OVC005 19/18 A3004 RMK AO2 T01870175
KOWP 231255Z AUTO 06004KT 10SM OVC005 19/18 A3004 RMK AO2 T01860175
KOWP 231235Z AUTO 05004KT 10SM OVC005 19/18 A3003 RMK AO2 T01860175
KOWP 231215Z AUTO 06004KT 10SM BKN005 OVC017 19/18 A3003 RMK AO2 T01850175
KOWP 231155Z AUTO 07003KT 7SM BKN005 OVC017 19/18 A3003 RMK AO2 T01850175 10195 20185
KOWP 231135Z AUTO 06004KT 7SM BKN005 OVC018 19/18 A3003 RMK AO2 T01850175
KOWP 231115Z AUTO 06003KT 10SM SCT005 OVC018 19/18 A3003 RMK AO2 T01860175
KOWP 231055Z AUTO 03003KT 10SM BKN005 OVC018 19/18 A3002 RMK AO2 T01860175
KOWP 231035Z AUTO 06003KT 10SM SCT005 OVC016 19/18 A3002 RMK AO2 T01860175
KOWP 231015Z AUTO 04003KT 10SM OVC016 19/17 A3002 RMK AO2 T01850173
KOWP 230955Z AUTO 06003KT 10SM OVC018 19/17 A3002 RMK AO2 T01860174
KOWP 230935Z AUTO 00000KT 10SM OVC020 19/17 A3003 RMK AO2 T01860174
KOWP 230915Z AUTO 00000KT 10SM OVC020 19/17 A3003 RMK AO2 T01860173
KOWP 230855Z AUTO 07004KT 7SM SCT012 OVC020 19/17 A3003 RMK AO2 T01860172
KOWP 230835Z AUTO 05004KT 7SM SCT008 OVC012 19/17 A3003 RMK AO2 T01870171
KOWP 230815Z AUTO 00000KT 10SM OVC014 19/17 A3003 RMK AO2 T01880170
KOWP 230755Z AUTO 07004KT 7SM OVC012 19/17 A3004 RMK AO2 T01910169
KOWP 230735Z AUTO 07004KT 10SM OVC014 19/17 A3004 RMK AO2 T01930166
KOWP 230715Z AUTO 08004KT 10SM OVC014 20/17 A3004 RMK AO2 T01950165
KOWP 230655Z AUTO 07005KT 10SM OVC016 20/17 A3005 RMK AO2 T01950165
KOWP 230635Z AUTO 06003KT 10SM OVC018 20/17 A3005 RMK AO2 T01950165
KOWP 230615Z AUTO 07004KT 10SM OVC020 20/17 A3005 RMK AO2 T01950165
KOWP 230555Z AUTO 07004KT 10SM OVC020 20/17 A3005 RMK AO2 T01950165 10225 20193 402450160
KOWP 230535Z AUTO 08005KT 10SM OVC020 20/16 A3005 RMK AO2 T01950164
KOWP 230515Z AUTO 09005KT 10SM BKN020 19/16 A3006 RMK AO2 T01930162
KOWP 230455Z AUTO 09005KT 10SM BKN018 BKN023 20/16 A3006 RMK AO2 T01960161
KOWP 230435Z AUTO 08008KT 10SM BKN018 OVC033 20/16 A3007 RMK AO2 T02000162
KOWP 230415Z AUTO 08006KT 10SM SCT018 OVC033 20/17 A3007 RMK AO2 T02000165
KOWP 230355Z AUTO 09003KT 10SM SCT018 OVC029 20/17 A3007 RMK AO2 T02020166
KOWP 230335Z AUTO 07004KT 10SM OVC025 20/17 A3008 RMK AO2 T02030165
KOWP 230315Z AUTO 06006KT 10SM OVC023 21/17 A3007 RMK AO2 T02070165
KOWP 230255Z AUTO 08005KT 10SM SCT019 OVC025 21/17 A3008 RMK AO2 T02100167
KOWP 230235Z AUTO 07003KT 10SM OVC025 21/17 A3008 RMK AO2 T02120167
KOWP 230215Z AUTO 07006KT 10SM OVC027 21/17 A3007 RMK AO2 T02140167
KOWP 230155Z AUTO 08005KT 10SM OVC027 22/17 A3007 RMK AO2 T02150167
KOWP 230135Z AUTO 07004KT 10SM OVC027 22/17 A3007 RMK AO2 T02150168
KOWP 230115Z AUTO 06004KT 10SM OVC027 22/17 A3006 RMK AO2 T02170170
KOWP 230055Z AUTO 06006KT 10SM OVC027 22/17 A3006 RMK AO2 T02180170
KOWP 230035Z AUTO 05006KT 10SM OVC027 22/17 A3006 RMK AO2 T02200170
KOWP 230015Z AUTO 04006KT 10SM OVC029 22/17 A3005 RMK AO2 T02220169
KOWP 222355Z AUTO 04006KT 10SM OVC029 23/17 A3005 RMK AO2 T02250170 10245 20221
KOWP 222335Z AUTO 04009G14KT 10SM OVC029 23/17 A3005 RMK AO2 T02290166
KOWP 222315Z AUTO 05010KT 10SM OVC029 23/17 A3005 RMK AO2 T02320170
KOWP 222255Z AUTO 05008KT 10SM OVC029 23/17 A3005 RMK AO2 T02320169
KOWP 222235Z AUTO 04006KT 10SM OVC027 23/17 A3006 RMK AO2 T02320170
KOWP 222215Z AUTO 06006KT 10SM OVC027 23/17 A3006 RMK AO2 T02300168
KOWP 222155Z AUTO 05006KT 10SM OVC027 23/17 A3006 RMK AO2 T02340166
KOWP 222135Z AUTO 03009KT 10SM OVC025 24/17 A3006 RMK AO2 T02400166
KOWP 222115Z AUTO 04008KT 10SM OVC025 23/17 A3006 RMK AO2 T02320166
KOWP 222055Z AUTO 04007KT 10SM OVC025 23/17 A3007 RMK AO2 T02300165
KOWP 222035Z AUTO 05009KT 10SM OVC023 23/16 A3008 RMK AO2 T02320163
KOWP 222015Z AUTO 04008KT 10SM OVC023 23/17 A3008 RMK AO2 T02320166
KOWP 221955Z AUTO 04010KT 10SM OVC021 23/17 A3009 RMK AO2 T02290165
KOWP 221935Z AUTO 02007KT 10SM OVC021 23/16 A3010 RMK AO2 T02300163
KOWP 221915Z AUTO 06010KT 10SM OVC021 23/16 A3011 RMK AO2 T02280163
KOWP 221855Z AUTO 02010G17KT 10SM OVC021 23/16 A3011 RMK AO2 T02250162
KOWP 221835Z AUTO 04009G15KT 10SM BKN021 23/16 A3012 RMK AO2 T02280160
KOWP 221815Z AUTO 04012KT 10SM BKN021 23/16 A3013 RMK AO2 T02270163
KOWP 221755Z AUTO 05009G14KT 10SM BKN021 24/16 A3014 RMK AO2 LTG DSNT SE T02350162 10235 20160
KOWP 221735Z AUTO 03008KT 10SM SCT021 22/16 A3014 RMK AO2 T02150155
KOWP 221715Z AUTO 04008G15KT 10SM SCT017 22/16 A3015 RMK AO2 T02210156
KOWP 221655Z AUTO 04011G15KT 10SM SCT017 22/16 A3015 RMK AO2 T02160158
KOWP 221635Z AUTO 02009KT 10SM BKN017 20/15 A3016 RMK AO2 T02000152
KOWP 221615Z AUTO 02010KT 10SM SCT015 20/15 A3016 RMK AO2 T02010152
KOWP 221555Z AUTO 06010G14KT 10SM BKN015 20/15 A3016 RMK AO2 T01990152
KOWP 221535Z AUTO 04009KT 010V070 10SM BKN015 20/15 A3016 RMK AO2 T02000153
KOWP 221515Z AUTO 05011G15KT 10SM SCT013 19/15 A3016 RMK AO2 T01940149
KOWP 221455Z AUTO 03012G16KT 10SM SCT011 19/15 A3016 RMK AO2 T01870146
KOWP 221435Z AUTO 04013G17KT 10SM CLR 18/14 A3016 RMK AO2 T01790143